Orchid, Florida
Current Conditions -  °F | °C
As of 1:53 PM on Friday 24 Oct 2014 (Local Time) from KVRB Reporting Station
Few Clouds Few Clouds  
Wind Chill: 79°   Ceiling: Unl
Heat Index: 80°   Visibility: 10mi
Dew Point: 59°   Wind: 12mph
Humidity: 50%   Direction: 70°ENE
Pressure: 29.92"   Gusts: 24mph
Location:  27.7066°N, 80.3826°W
Report Text: KVRB 241753Z 07010G21KT 10SM FEW043 26/15 A2992 RMK AO2 SLP130 T02610150 10267 20222 58018
Loading
Personal Weather Stations






























Interactive Weather Map
Tropical Storm Tracking
New forecast layout! Learn more

10-Day Weather Forecast

Advertisements
Track Severe Weather on mobile